sensor_id;sensor_type;location;lat;lon;timestamp;temperature;humidity
52963;DHT22;38827;53.024;6.596;2022-07-15T00:02:05;15.20;68.20
52963;DHT22;38827;53.024;6.596;2022-07-15T00:04:32;15.20;67.30
52963;DHT22;38827;53.024;6.596;2022-07-15T00:06:57;15.10;67.40
52963;DHT22;38827;53.024;6.596;2022-07-15T00:09:23;15.00;68.50
52963;DHT22;38827;53.024;6.596;2022-07-15T00:12:09;15.10;69.00
52963;DHT22;38827;53.024;6.596;2022-07-15T00:14:35;15.10;68.00
52963;DHT22;38827;53.024;6.596;2022-07-15T00:17:01;15.00;67.50
52963;DHT22;38827;53.024;6.596;2022-07-15T00:19:27;14.90;67.50
52963;DHT22;38827;53.024;6.596;2022-07-15T00:21:53;14.80;67.50
52963;DHT22;38827;53.024;6.596;2022-07-15T00:24:18;14.80;67.30
52963;DHT22;38827;53.024;6.596;2022-07-15T00:26:44;14.80;69.60
52963;DHT22;38827;53.024;6.596;2022-07-15T00:29:10;15.00;68.40
52963;DHT22;38827;53.024;6.596;2022-07-15T00:31:36;15.10;69.50
52963;DHT22;38827;53.024;6.596;2022-07-15T00:34:03;15.30;67.80
52963;DHT22;38827;53.024;6.596;2022-07-15T00:36:29;15.30;66.70
52963;DHT22;38827;53.024;6.596;2022-07-15T00:38:54;15.20;66.60
52963;DHT22;38827;53.024;6.596;2022-07-15T00:41:20;15.20;66.20
52963;DHT22;38827;53.024;6.596;2022-07-15T00:43:46;15.20;66.50
52963;DHT22;38827;53.024;6.596;2022-07-15T00:46:20;15.00;66.40
52963;DHT22;38827;53.024;6.596;2022-07-15T00:48:46;14.90;67.50
52963;DHT22;38827;53.024;6.596;2022-07-15T00:51:12;14.90;67.60
52963;DHT22;38827;53.024;6.596;2022-07-15T00:53:38;15.00;67.50
52963;DHT22;38827;53.024;6.596;2022-07-15T00:56:07;15.10;67.10
52963;DHT22;38827;53.024;6.596;2022-07-15T00:58:36;15.10;68.70
52963;DHT22;38827;53.024;6.596;2022-07-15T01:01:03;15.20;67.30
52963;DHT22;38827;53.024;6.596;2022-07-15T01:03:31;15.10;67.20
52963;DHT22;38827;53.024;6.596;2022-07-15T01:05:57;15.20;67.30
52963;DHT22;38827;53.024;6.596;2022-07-15T01:08:24;15.20;66.90
52963;DHT22;38827;53.024;6.596;2022-07-15T01:10:50;15.20;67.90
52963;DHT22;38827;53.024;6.596;2022-07-15T01:13:19;15.20;67.20
52963;DHT22;38827;53.024;6.596;2022-07-15T01:15:46;15.20;67.00
52963;DHT22;38827;53.024;6.596;2022-07-15T01:18:11;15.20;66.90
52963;DHT22;38827;53.024;6.596;2022-07-15T01:20:44;15.20;68.40
52963;DHT22;38827;53.024;6.596;2022-07-15T01:23:14;15.20;68.60
52963;DHT22;38827;53.024;6.596;2022-07-15T01:25:40;15.20;69.60
52963;DHT22;38827;53.024;6.596;2022-07-15T01:28:07;15.20;68.90
52963;DHT22;38827;53.024;6.596;2022-07-15T01:30:33;15.20;67.90
52963;DHT22;38827;53.024;6.596;2022-07-15T01:32:59;15.10;68.10
52963;DHT22;38827;53.024;6.596;2022-07-15T01:35:25;15.10;70.00
52963;DHT22;38827;53.024;6.596;2022-07-15T01:37:50;15.20;69.30
52963;DHT22;38827;53.024;6.596;2022-07-15T01:40:16;15.30;68.60
52963;DHT22;38827;53.024;6.596;2022-07-15T01:42:42;15.30;67.70
52963;DHT22;38827;53.024;6.596;2022-07-15T01:45:10;15.30;67.00
52963;DHT22;38827;53.024;6.596;2022-07-15T01:47:46;15.20;68.00
52963;DHT22;38827;53.024;6.596;2022-07-15T01:50:12;15.10;67.40
52963;DHT22;38827;53.024;6.596;2022-07-15T01:52:38;15.00;67.70
52963;DHT22;38827;53.024;6.596;2022-07-15T01:55:06;14.90;68.00
52963;DHT22;38827;53.024;6.596;2022-07-15T01:57:32;14.90;68.00
52963;DHT22;38827;53.024;6.596;2022-07-15T01:59:58;14.90;68.40
52963;DHT22;38827;53.024;6.596;2022-07-15T02:02:24;14.80;69.60
52963;DHT22;38827;53.024;6.596;2022-07-15T02:04:50;15.00;68.70
52963;DHT22;38827;53.024;6.596;2022-07-15T02:07:16;15.20;67.80
52963;DHT22;38827;53.024;6.596;2022-07-15T02:09:41;15.30;67.70
52963;DHT22;38827;53.024;6.596;2022-07-15T02:12:07;15.30;67.20
52963;DHT22;38827;53.024;6.596;2022-07-15T02:14:33;15.30;67.90
52963;DHT22;38827;53.024;6.596;2022-07-15T02:17:00;15.30;69.80
52963;DHT22;38827;53.024;6.596;2022-07-15T02:19:26;15.40;69.30
52963;DHT22;38827;53.024;6.596;2022-07-15T02:21:52;15.50;68.10
52963;DHT22;38827;53.024;6.596;2022-07-15T02:24:17;15.60;67.00
52963;DHT22;38827;53.024;6.596;2022-07-15T02:26:45;15.70;66.40
52963;DHT22;38827;53.024;6.596;2022-07-15T02:29:10;15.60;67.10
52963;DHT22;38827;53.024;6.596;2022-07-15T02:31:36;15.40;68.00
52963;DHT22;38827;53.024;6.596;2022-07-15T02:34:02;15.30;67.90
52963;DHT22;38827;53.024;6.596;2022-07-15T02:36:28;15.30;67.90
52963;DHT22;38827;53.024;6.596;2022-07-15T02:38:54;15.20;67.90
52963;DHT22;38827;53.024;6.596;2022-07-15T02:41:19;15.10;69.20
52963;DHT22;38827;53.024;6.596;2022-07-15T02:43:45;14.90;69.20
52963;DHT22;38827;53.024;6.596;2022-07-15T02:46:11;14.80;68.80
52963;DHT22;38827;53.024;6.596;2022-07-15T02:48:37;14.70;68.80
52963;DHT22;38827;53.024;6.596;2022-07-15T02:51:03;14.60;69.10
52963;DHT22;38827;53.024;6.596;2022-07-15T02:53:29;14.40;70.20
52963;DHT22;38827;53.024;6.596;2022-07-15T02:55:56;14.20;70.10
52963;DHT22;38827;53.024;6.596;2022-07-15T02:58:24;14.00;70.90
52963;DHT22;38827;53.024;6.596;2022-07-15T03:00:50;13.90;71.80
52963;DHT22;38827;53.024;6.596;2022-07-15T03:03:16;13.80;71.80
52963;DHT22;38827;53.024;6.596;2022-07-15T03:05:42;13.80;72.10
52963;DHT22;38827;53.024;6.596;2022-07-15T03:08:08;13.70;72.10
52963;DHT22;38827;53.024;6.596;2022-07-15T03:10:35;13.70;72.30
52963;DHT22;38827;53.024;6.596;2022-07-15T03:13:00;13.70;72.20
52963;DHT22;38827;53.024;6.596;2022-07-15T03:15:26;13.70;72.00
52963;DHT22;38827;53.024;6.596;2022-07-15T03:17:52;13.70;72.30
52963;DHT22;38827;53.024;6.596;2022-07-15T03:20:17;13.60;72.50
52963;DHT22;38827;53.024;6.596;2022-07-15T03:22:43;13.60;72.80
52963;DHT22;38827;53.024;6.596;2022-07-15T03:25:09;13.60;73.00
52963;DHT22;38827;53.024;6.596;2022-07-15T03:27:35;13.60;73.40
52963;DHT22;38827;53.024;6.596;2022-07-15T03:30:01;13.60;73.40
52963;DHT22;38827;53.024;6.596;2022-07-15T03:32:27;13.60;74.20
52963;DHT22;38827;53.024;6.596;2022-07-15T03:34:53;13.70;73.50
52963;DHT22;38827;53.024;6.596;2022-07-15T03:37:22;13.60;73.10
52963;DHT22;38827;53.024;6.596;2022-07-15T03:39:47;13.60;73.10
52963;DHT22;38827;53.024;6.596;2022-07-15T03:42:13;13.60;73.60
52963;DHT22;38827;53.024;6.596;2022-07-15T03:44:39;13.60;73.30
52963;DHT22;38827;53.024;6.596;2022-07-15T03:47:04;13.50;73.10
52963;DHT22;38827;53.024;6.596;2022-07-15T03:49:30;13.40;73.00
52963;DHT22;38827;53.024;6.596;2022-07-15T03:51:56;13.40;72.50
52963;DHT22;38827;53.024;6.596;2022-07-15T03:54:22;13.30;72.60
52963;DHT22;38827;53.024;6.596;2022-07-15T03:56:47;13.20;72.80
52963;DHT22;38827;53.024;6.596;2022-07-15T03:59:14;13.00;73.10
52963;DHT22;38827;53.024;6.596;2022-07-15T04:01:40;13.00;73.30
52963;DHT22;38827;53.024;6.596;2022-07-15T04:04:06;12.90;74.00
52963;DHT22;38827;53.024;6.596;2022-07-15T04:06:32;12.90;74.30
52963;DHT22;38827;53.024;6.596;2022-07-15T04:08:58;12.80;74.40
52963;DHT22;38827;53.024;6.596;2022-07-15T04:11:24;12.80;74.20
52963;DHT22;38827;53.024;6.596;2022-07-15T04:13:50;12.80;74.40
52963;DHT22;38827;53.024;6.596;2022-07-15T04:16:16;12.80;74.50
52963;DHT22;38827;53.024;6.596;2022-07-15T04:18:42;12.80;75.50
52963;DHT22;38827;53.024;6.596;2022-07-15T04:21:08;12.90;75.60
52963;DHT22;38827;53.024;6.596;2022-07-15T04:23:33;13.00;75.20
52963;DHT22;38827;53.024;6.596;2022-07-15T04:25:59;13.10;74.40
52963;DHT22;38827;53.024;6.596;2022-07-15T04:28:30;13.10;74.10
52963;DHT22;38827;53.024;6.596;2022-07-15T04:30:56;13.20;74.60
52963;DHT22;38827;53.024;6.596;2022-07-15T04:33:22;13.30;75.20
52963;DHT22;38827;53.024;6.596;2022-07-15T04:35:48;13.40;74.40
52963;DHT22;38827;53.024;6.596;2022-07-15T04:38:14;13.50;73.90
52963;DHT22;38827;53.024;6.596;2022-07-15T04:40:40;13.60;73.90
52963;DHT22;38827;53.024;6.596;2022-07-15T04:43:06;13.70;73.80
52963;DHT22;38827;53.024;6.596;2022-07-15T04:45:33;13.80;73.50
52963;DHT22;38827;53.024;6.596;2022-07-15T04:47:59;14.00;73.10
52963;DHT22;38827;53.024;6.596;2022-07-15T04:50:25;14.00;72.40
52963;DHT22;38827;53.024;6.596;2022-07-15T04:53:09;14.10;72.00
52963;DHT22;38827;53.024;6.596;2022-07-15T04:55:35;14.10;72.70
52963;DHT22;38827;53.024;6.596;2022-07-15T04:58:01;14.20;72.60
52963;DHT22;38827;53.024;6.596;2022-07-15T05:00:27;14.30;71.70
52963;DHT22;38827;53.024;6.596;2022-07-15T05:02:53;14.40;71.80
52963;DHT22;38827;53.024;6.596;2022-07-15T05:05:18;14.60;70.70
52963;DHT22;38827;53.024;6.596;2022-07-15T05:07:44;14.70;71.40
52963;DHT22;38827;53.024;6.596;2022-07-15T05:10:11;14.90;71.20
52963;DHT22;38827;53.024;6.596;2022-07-15T05:12:37;15.20;69.90
52963;DHT22;38827;53.024;6.596;2022-07-15T05:15:03;15.40;69.20
52963;DHT22;38827;53.024;6.596;2022-07-15T05:17:29;15.60;67.80
52963;DHT22;38827;53.024;6.596;2022-07-15T05:19:58;15.70;68.40
52963;DHT22;38827;53.024;6.596;2022-07-15T05:22:23;16.00;67.20
52963;DHT22;38827;53.024;6.596;2022-07-15T05:24:49;16.20;65.70
52963;DHT22;38827;53.024;6.596;2022-07-15T05:27:15;16.30;66.00
52963;DHT22;38827;53.024;6.596;2022-07-15T05:29:46;16.20;65.50
52963;DHT22;38827;53.024;6.596;2022-07-15T05:32:12;16.10;65.60
52963;DHT22;38827;53.024;6.596;2022-07-15T05:34:38;16.10;66.90
52963;DHT22;38827;53.024;6.596;2022-07-15T05:37:03;16.10;66.00
52963;DHT22;38827;53.024;6.596;2022-07-15T05:39:29;16.00;66.20
52963;DHT22;38827;53.024;6.596;2022-07-15T05:41:55;15.90;66.00
52963;DHT22;38827;53.024;6.596;2022-07-15T05:44:20;15.60;66.50
52963;DHT22;38827;53.024;6.596;2022-07-15T05:46:46;15.40;66.70
52963;DHT22;38827;53.024;6.596;2022-07-15T05:49:13;15.20;67.70
52963;DHT22;38827;53.024;6.596;2022-07-15T05:51:38;15.20;68.80
52963;DHT22;38827;53.024;6.596;2022-07-15T05:54:04;15.30;68.20
52963;DHT22;38827;53.024;6.596;2022-07-15T05:56:30;15.40;68.20
52963;DHT22;38827;53.024;6.596;2022-07-15T05:58:55;15.70;68.80
52963;DHT22;38827;53.024;6.596;2022-07-15T06:01:21;16.00;67.40
52963;DHT22;38827;53.024;6.596;2022-07-15T06:03:49;16.30;67.30
52963;DHT22;38827;53.024;6.596;2022-07-15T06:06:14;16.60;66.30
52963;DHT22;38827;53.024;6.596;2022-07-15T06:08:40;16.80;64.90
52963;DHT22;38827;53.024;6.596;2022-07-15T06:11:06;17.00;63.60
52963;DHT22;38827;53.024;6.596;2022-07-15T06:13:33;17.00;64.90
52963;DHT22;38827;53.024;6.596;2022-07-15T06:15:59;17.20;65.50
52963;DHT22;38827;53.024;6.596;2022-07-15T06:18:25;17.40;62.90
52963;DHT22;38827;53.024;6.596;2022-07-15T06:20:51;17.50;62.70
52963;DHT22;38827;53.024;6.596;2022-07-15T06:23:17;17.70;63.00
52963;DHT22;38827;53.024;6.596;2022-07-15T06:25:43;17.90;63.20
52963;DHT22;38827;53.024;6.596;2022-07-15T06:28:08;18.10;62.30
52963;DHT22;38827;53.024;6.596;2022-07-15T06:30:34;18.30;62.00
52963;DHT22;38827;53.024;6.596;2022-07-15T06:33:00;18.40;61.90
52963;DHT22;38827;53.024;6.596;2022-07-15T06:35:25;18.40;61.20
52963;DHT22;38827;53.024;6.596;2022-07-15T06:37:51;18.40;60.30
52963;DHT22;38827;53.024;6.596;2022-07-15T06:40:17;18.30;60.10
52963;DHT22;38827;53.024;6.596;2022-07-15T06:42:43;18.40;60.50
52963;DHT22;38827;53.024;6.596;2022-07-15T06:45:09;18.40;59.90
52963;DHT22;38827;53.024;6.596;2022-07-15T06:47:39;18.50;60.30
52963;DHT22;38827;53.024;6.596;2022-07-15T06:50:05;18.60;60.80
52963;DHT22;38827;53.024;6.596;2022-07-15T06:52:30;18.70;59.80
52963;DHT22;38827;53.024;6.596;2022-07-15T06:54:56;18.80;59.30
52963;DHT22;38827;53.024;6.596;2022-07-15T06:57:22;18.90;58.80
52963;DHT22;38827;53.024;6.596;2022-07-15T06:59:49;18.80;58.80
52963;DHT22;38827;53.024;6.596;2022-07-15T07:02:15;18.80;58.40
52963;DHT22;38827;53.024;6.596;2022-07-15T07:04:40;18.70;58.90
52963;DHT22;38827;53.024;6.596;2022-07-15T07:07:08;18.70;59.40
52963;DHT22;38827;53.024;6.596;2022-07-15T07:09:33;18.70;58.80
52963;DHT22;38827;53.024;6.596;2022-07-15T07:11:59;18.80;58.50
52963;DHT22;38827;53.024;6.596;2022-07-15T07:14:25;19.00;59.10
52963;DHT22;38827;53.024;6.596;2022-07-15T07:16:51;19.10;58.90
52963;DHT22;38827;53.024;6.596;2022-07-15T07:19:16;19.20;59.20
52963;DHT22;38827;53.024;6.596;2022-07-15T07:21:42;19.30;58.60
52963;DHT22;38827;53.024;6.596;2022-07-15T07:24:08;19.40;57.60
52963;DHT22;38827;53.024;6.596;2022-07-15T07:26:34;19.50;57.00
52963;DHT22;38827;53.024;6.596;2022-07-15T07:29:00;19.60;56.80
52963;DHT22;38827;53.024;6.596;2022-07-15T07:31:26;19.70;57.20
52963;DHT22;38827;53.024;6.596;2022-07-15T07:33:56;19.80;55.50
52963;DHT22;38827;53.024;6.596;2022-07-15T07:36:22;19.70;55.70
52963;DHT22;38827;53.024;6.596;2022-07-15T07:38:48;19.70;54.50
52963;DHT22;38827;53.024;6.596;2022-07-15T07:41:14;19.60;54.40
52963;DHT22;38827;53.024;6.596;2022-07-15T07:43:40;19.60;54.20
52963;DHT22;38827;53.024;6.596;2022-07-15T07:46:05;19.70;53.90
52963;DHT22;38827;53.024;6.596;2022-07-15T07:48:31;19.90;54.10
52963;DHT22;38827;53.024;6.596;2022-07-15T07:50:58;20.20;52.70
52963;DHT22;38827;53.024;6.596;2022-07-15T07:53:23;20.30;52.70
52963;DHT22;38827;53.024;6.596;2022-07-15T07:55:50;20.20;52.00
52963;DHT22;38827;53.024;6.596;2022-07-15T07:58:15;20.10;54.00
52963;DHT22;38827;53.024;6.596;2022-07-15T08:00:42;20.30;53.70
52963;DHT22;38827;53.024;6.596;2022-07-15T08:03:21;20.60;53.90
52963;DHT22;38827;53.024;6.596;2022-07-15T08:05:47;20.80;51.30
52963;DHT22;38827;53.024;6.596;2022-07-15T08:08:18;20.70;52.70
52963;DHT22;38827;53.024;6.596;2022-07-15T08:10:47;20.50;51.90
52963;DHT22;38827;53.024;6.596;2022-07-15T08:13:15;20.20;52.60
52963;DHT22;38827;53.024;6.596;2022-07-15T08:15:40;19.90;54.20
52963;DHT22;38827;53.024;6.596;2022-07-15T08:18:06;19.70;55.10
52963;DHT22;38827;53.024;6.596;2022-07-15T08:20:33;19.60;56.00
52963;DHT22;38827;53.024;6.596;2022-07-15T08:23:00;19.50;56.70
52963;DHT22;38827;53.024;6.596;2022-07-15T08:25:28;19.50;57.10
52963;DHT22;38827;53.024;6.596;2022-07-15T08:27:57;19.60;57.20
52963;DHT22;38827;53.024;6.596;2022-07-15T08:30:25;19.90;56.30
52963;DHT22;38827;53.024;6.596;2022-07-15T08:32:51;20.20;56.00
52963;DHT22;38827;53.024;6.596;2022-07-15T08:35:17;20.60;54.20
52963;DHT22;38827;53.024;6.596;2022-07-15T08:37:43;21.00;53.30
52963;DHT22;38827;53.024;6.596;2022-07-15T08:40:10;21.30;51.90
52963;DHT22;38827;53.024;6.596;2022-07-15T08:42:37;21.50;50.30
52963;DHT22;38827;53.024;6.596;2022-07-15T08:45:08;21.50;51.50
52963;DHT22;38827;53.024;6.596;2022-07-15T08:47:37;21.40;51.70
52963;DHT22;38827;53.024;6.596;2022-07-15T08:50:04;21.20;52.00
52963;DHT22;38827;53.024;6.596;2022-07-15T08:52:33;21.00;52.10
52963;DHT22;38827;53.024;6.596;2022-07-15T08:54:59;20.80;53.10
52963;DHT22;38827;53.024;6.596;2022-07-15T08:57:25;20.70;52.80
52963;DHT22;38827;53.024;6.596;2022-07-15T08:59:54;20.50;53.70
52963;DHT22;38827;53.024;6.596;2022-07-15T09:02:19;20.40;53.20
52963;DHT22;38827;53.024;6.596;2022-07-15T09:10:53;20.50;50.70
52963;DHT22;38827;53.024;6.596;2022-07-15T09:15:52;20.70;52.90
52963;DHT22;38827;53.024;6.596;2022-07-15T09:18:21;21.10;52.20
52963;DHT22;38827;53.024;6.596;2022-07-15T09:20:47;21.40;50.90
52963;DHT22;38827;53.024;6.596;2022-07-15T09:23:16;21.50;49.40
52963;DHT22;38827;53.024;6.596;2022-07-15T09:25:48;21.50;50.20
52963;DHT22;38827;53.024;6.596;2022-07-15T09:28:15;21.40;50.80
52963;DHT22;38827;53.024;6.596;2022-07-15T09:30:45;21.20;51.20
52963;DHT22;38827;53.024;6.596;2022-07-15T09:33:32;21.10;50.70
52963;DHT22;38827;53.024;6.596;2022-07-15T09:36:21;20.90;52.10
52963;DHT22;38827;53.024;6.596;2022-07-15T09:38:55;21.00;51.60
52963;DHT22;38827;53.024;6.596;2022-07-15T09:41:27;21.00;50.50
52963;DHT22;38827;53.024;6.596;2022-07-15T09:44:06;21.00;51.70
52963;DHT22;38827;53.024;6.596;2022-07-15T09:49:17;21.40;50.20
52963;DHT22;38827;53.024;6.596;2022-07-15T09:52:11;21.60;49.90
52963;DHT22;38827;53.024;6.596;2022-07-15T09:54:48;21.70;48.30
52963;DHT22;38827;53.024;6.596;2022-07-15T09:57:16;21.80;49.40
52963;DHT22;38827;53.024;6.596;2022-07-15T09:59:48;21.70;49.10
52963;DHT22;38827;53.024;6.596;2022-07-15T10:02:15;21.80;50.10
52963;DHT22;38827;53.024;6.596;2022-07-15T10:04:40;21.80;48.70
52963;DHT22;38827;53.024;6.596;2022-07-15T10:07:07;21.90;47.60
52963;DHT22;38827;53.024;6.596;2022-07-15T10:09:35;22.00;47.30
52963;DHT22;38827;53.024;6.596;2022-07-15T10:20:23;22.80;46.10
52963;DHT22;38827;53.024;6.596;2022-07-15T10:23:09;23.20;45.90
52963;DHT22;38827;53.024;6.596;2022-07-15T10:28:15;23.40;45.90
52963;DHT22;38827;53.024;6.596;2022-07-15T10:30:44;23.50;45.40
52963;DHT22;38827;53.024;6.596;2022-07-15T10:33:17;23.40;44.80
52963;DHT22;38827;53.024;6.596;2022-07-15T10:35:49;23.40;44.40
52963;DHT22;38827;53.024;6.596;2022-07-15T10:38:35;23.40;45.90
52963;DHT22;38827;53.024;6.596;2022-07-15T10:43:53;23.80;45.10
52963;DHT22;38827;53.024;6.596;2022-07-15T10:46:20;23.90;43.30
52963;DHT22;38827;53.024;6.596;2022-07-15T10:51:43;23.80;43.40
52963;DHT22;38827;53.024;6.596;2022-07-15T10:54:37;23.80;44.30
52963;DHT22;38827;53.024;6.596;2022-07-15T10:56:56;23.60;44.70
52963;DHT22;38827;53.024;6.596;2022-07-15T10:59:24;23.40;45.70
52963;DHT22;38827;53.024;6.596;2022-07-15T11:04:26;23.20;45.50
52963;DHT22;38827;53.024;6.596;2022-07-15T11:15:12;22.60;45.30
52963;DHT22;38827;53.024;6.596;2022-07-15T11:17:40;22.40;45.70
52963;DHT22;38827;53.024;6.596;2022-07-15T11:20:11;22.40;46.20
52963;DHT22;38827;53.024;6.596;2022-07-15T11:22:40;22.40;45.20
52963;DHT22;38827;53.024;6.596;2022-07-15T11:25:15;22.40;45.40
52963;DHT22;38827;53.024;6.596;2022-07-15T11:27:41;22.30;45.50
52963;DHT22;38827;53.024;6.596;2022-07-15T11:30:07;22.10;45.80
52963;DHT22;38827;53.024;6.596;2022-07-15T11:32:33;21.90;47.10
52963;DHT22;38827;53.024;6.596;2022-07-15T11:35:03;21.80;46.80
52963;DHT22;38827;53.024;6.596;2022-07-15T11:37:30;21.90;47.60
52963;DHT22;38827;53.024;6.596;2022-07-15T11:40:14;22.00;46.80
52963;DHT22;38827;53.024;6.596;2022-07-15T11:42:59;22.30;44.50
52963;DHT22;38827;53.024;6.596;2022-07-15T11:45:43;22.80;45.20
52963;DHT22;38827;53.024;6.596;2022-07-15T11:48:12;23.40;44.20
52963;DHT22;38827;53.024;6.596;2022-07-15T11:50:52;23.70;43.60
52963;DHT22;38827;53.024;6.596;2022-07-15T11:53:18;24.10;42.80
52963;DHT22;38827;53.024;6.596;2022-07-15T11:55:58;24.40;42.70
52963;DHT22;38827;53.024;6.596;2022-07-15T11:58:42;24.60;42.30
52963;DHT22;38827;53.024;6.596;2022-07-15T12:01:11;24.70;41.80
52963;DHT22;38827;53.024;6.596;2022-07-15T12:03:43;24.80;41.80
52963;DHT22;38827;53.024;6.596;2022-07-15T12:06:16;24.80;41.00
52963;DHT22;38827;53.024;6.596;2022-07-15T12:08:45;24.80;40.70
52963;DHT22;38827;53.024;6.596;2022-07-15T12:11:17;24.80;41.60
52963;DHT22;38827;53.024;6.596;2022-07-15T12:14:04;24.90;41.20
52963;DHT22;38827;53.024;6.596;2022-07-15T12:16:41;25.00;41.20
52963;DHT22;38827;53.024;6.596;2022-07-15T12:19:14;25.20;41.30
52963;DHT22;38827;53.024;6.596;2022-07-15T12:21:41;25.40;40.70
52963;DHT22;38827;53.024;6.596;2022-07-15T12:26:41;25.20;39.90
52963;DHT22;38827;53.024;6.596;2022-07-15T12:29:10;25.00;41.00
52963;DHT22;38827;53.024;6.596;2022-07-15T12:31:38;24.90;40.90
52963;DHT22;38827;53.024;6.596;2022-07-15T12:34:04;25.00;41.10
52963;DHT22;38827;53.024;6.596;2022-07-15T12:36:33;25.10;40.70
52963;DHT22;38827;53.024;6.596;2022-07-15T12:39:13;25.20;40.80
52963;DHT22;38827;53.024;6.596;2022-07-15T12:41:43;25.20;40.00
52963;DHT22;38827;53.024;6.596;2022-07-15T12:44:10;25.40;39.80
52963;DHT22;38827;53.024;6.596;2022-07-15T12:46:55;25.60;39.40
52963;DHT22;38827;53.024;6.596;2022-07-15T12:49:44;25.60;39.60
52963;DHT22;38827;53.024;6.596;2022-07-15T12:52:33;25.50;39.30
52963;DHT22;38827;53.024;6.596;2022-07-15T12:55:11;25.50;40.30
52963;DHT22;38827;53.024;6.596;2022-07-15T12:57:37;25.40;39.90
52963;DHT22;38827;53.024;6.596;2022-07-15T13:00:13;25.10;39.90
52963;DHT22;38827;53.024;6.596;2022-07-15T13:08:09;24.20;41.90
52963;DHT22;38827;53.024;6.596;2022-07-15T13:10:35;24.10;42.40
52963;DHT22;38827;53.024;6.596;2022-07-15T13:13:03;24.10;42.80
52963;DHT22;38827;53.024;6.596;2022-07-15T13:15:30;24.00;42.40
52963;DHT22;38827;53.024;6.596;2022-07-15T13:17:56;23.90;42.80
52963;DHT22;38827;53.024;6.596;2022-07-15T13:20:23;23.70;42.80
52963;DHT22;38827;53.024;6.596;2022-07-15T13:22:49;23.50;42.70
52963;DHT22;38827;53.024;6.596;2022-07-15T13:25:15;23.30;43.50
52963;DHT22;38827;53.024;6.596;2022-07-15T13:27:41;23.20;44.00
52963;DHT22;38827;53.024;6.596;2022-07-15T13:30:09;23.30;43.80
52963;DHT22;38827;53.024;6.596;2022-07-15T13:32:36;23.30;43.60
52963;DHT22;38827;53.024;6.596;2022-07-15T13:35:02;23.30;43.50
52963;DHT22;38827;53.024;6.596;2022-07-15T13:37:28;23.20;44.00
52963;DHT22;38827;53.024;6.596;2022-07-15T13:39:54;23.10;44.60
52963;DHT22;38827;53.024;6.596;2022-07-15T13:45:21;22.90;44.30
52963;DHT22;38827;53.024;6.596;2022-07-15T13:47:48;22.80;45.00
52963;DHT22;38827;53.024;6.596;2022-07-15T13:50:16;22.60;45.20
52963;DHT22;38827;53.024;6.596;2022-07-15T13:53:19;22.50;45.80
52963;DHT22;38827;53.024;6.596;2022-07-15T13:56:04;22.50;45.50
52963;DHT22;38827;53.024;6.596;2022-07-15T13:58:30;22.40;45.80
52963;DHT22;38827;53.024;6.596;2022-07-15T14:00:56;22.40;46.40
52963;DHT22;38827;53.024;6.596;2022-07-15T14:03:22;22.40;46.30
52963;DHT22;38827;53.024;6.596;2022-07-15T14:05:47;22.40;46.70
52963;DHT22;38827;53.024;6.596;2022-07-15T14:08:13;22.60;46.10
52963;DHT22;38827;53.024;6.596;2022-07-15T14:10:39;22.80;46.30
52963;DHT22;38827;53.024;6.596;2022-07-15T14:13:07;23.00;46.00
52963;DHT22;38827;53.024;6.596;2022-07-15T14:15:33;23.10;45.30
52963;DHT22;38827;53.024;6.596;2022-07-15T14:17:59;23.10;45.30
52963;DHT22;38827;53.024;6.596;2022-07-15T14:20:25;23.00;45.80
52963;DHT22;38827;53.024;6.596;2022-07-15T14:22:50;23.00;46.10
52963;DHT22;38827;53.024;6.596;2022-07-15T14:25:19;22.90;46.10
52963;DHT22;38827;53.024;6.596;2022-07-15T14:27:45;22.90;45.50
52963;DHT22;38827;53.024;6.596;2022-07-15T14:30:10;22.80;45.90
52963;DHT22;38827;53.024;6.596;2022-07-15T14:32:38;22.70;45.40
52963;DHT22;38827;53.024;6.596;2022-07-15T14:35:05;22.70;45.70
52963;DHT22;38827;53.024;6.596;2022-07-15T14:37:31;22.60;46.30
52963;DHT22;38827;53.024;6.596;2022-07-15T14:39:56;22.60;46.40
52963;DHT22;38827;53.024;6.596;2022-07-15T14:42:22;22.60;46.40
52963;DHT22;38827;53.024;6.596;2022-07-15T14:44:48;22.70;46.00
52963;DHT22;38827;53.024;6.596;2022-07-15T14:47:14;22.80;46.20
52963;DHT22;38827;53.024;6.596;2022-07-15T14:49:39;22.80;45.80
52963;DHT22;38827;53.024;6.596;2022-07-15T14:52:05;22.80;45.80
52963;DHT22;38827;53.024;6.596;2022-07-15T14:54:31;22.90;45.90
52963;DHT22;38827;53.024;6.596;2022-07-15T14:56:56;23.00;46.00
52963;DHT22;38827;53.024;6.596;2022-07-15T14:59:22;23.00;46.30
52963;DHT22;38827;53.024;6.596;2022-07-15T15:01:48;23.00;46.10
52963;DHT22;38827;53.024;6.596;2022-07-15T15:04:16;23.00;45.90
52963;DHT22;38827;53.024;6.596;2022-07-15T15:06:42;23.00;46.20
52963;DHT22;38827;53.024;6.596;2022-07-15T15:09:08;23.00;46.30
52963;DHT22;38827;53.024;6.596;2022-07-15T15:11:33;23.00;45.80
52963;DHT22;38827;53.024;6.596;2022-07-15T15:13:59;23.00;45.90
52963;DHT22;38827;53.024;6.596;2022-07-15T15:16:27;22.90;45.80
52963;DHT22;38827;53.024;6.596;2022-07-15T15:18:53;22.80;46.50
52963;DHT22;38827;53.024;6.596;2022-07-15T15:21:18;22.80;46.40
52963;DHT22;38827;53.024;6.596;2022-07-15T15:23:45;22.70;46.50
52963;DHT22;38827;53.024;6.596;2022-07-15T15:26:11;22.70;46.60
52963;DHT22;38827;53.024;6.596;2022-07-15T15:28:55;22.60;46.30
52963;DHT22;38827;53.024;6.596;2022-07-15T15:31:21;22.70;46.70
52963;DHT22;38827;53.024;6.596;2022-07-15T15:33:48;22.70;46.70
52963;DHT22;38827;53.024;6.596;2022-07-15T15:36:15;22.70;46.60
52963;DHT22;38827;53.024;6.596;2022-07-15T15:38:41;22.50;47.10
52963;DHT22;38827;53.024;6.596;2022-07-15T15:41:07;22.50;46.80
52963;DHT22;38827;53.024;6.596;2022-07-15T15:43:33;22.50;46.50
52963;DHT22;38827;53.024;6.596;2022-07-15T15:46:34;22.50;46.70
52963;DHT22;38827;53.024;6.596;2022-07-15T15:49:00;22.50;45.70
52963;DHT22;38827;53.024;6.596;2022-07-15T15:51:32;22.50;46.70
52963;DHT22;38827;53.024;6.596;2022-07-15T15:54:01;22.50;46.80
52963;DHT22;38827;53.024;6.596;2022-07-15T15:56:33;22.40;47.10
52963;DHT22;38827;53.024;6.596;2022-07-15T15:59:17;22.50;46.90
52963;DHT22;38827;53.024;6.596;2022-07-15T16:01:43;22.50;46.40
52963;DHT22;38827;53.024;6.596;2022-07-15T16:04:09;22.50;47.10
52963;DHT22;38827;53.024;6.596;2022-07-15T16:06:34;22.50;47.30
52963;DHT22;38827;53.024;6.596;2022-07-15T16:09:12;22.50;47.50
52963;DHT22;38827;53.024;6.596;2022-07-15T16:11:47;22.60;47.60
52963;DHT22;38827;53.024;6.596;2022-07-15T16:14:13;22.70;47.50
52963;DHT22;38827;53.024;6.596;2022-07-15T16:16:38;22.70;47.10
52963;DHT22;38827;53.024;6.596;2022-07-15T16:19:04;22.70;46.80
52963;DHT22;38827;53.024;6.596;2022-07-15T16:21:30;22.60;46.90
52963;DHT22;38827;53.024;6.596;2022-07-15T16:24:41;22.60;46.90
52963;DHT22;38827;53.024;6.596;2022-07-15T16:27:07;22.60;47.00